Back to top

Lander, WY weather

Hunt Field Airport, Lander, WY: 12/13/2019 00:53
Visibility10 statute milesclear sky
View 7-Day Forecast
Area Summary
Sky/CloudsSky Clear
Weather [last 24 hours]None
Pressure29.85 in.Hg (1011 hPa)
Dew Point19.9 °F (-6.7 °C)
Relative Humidity53.6 %
Temperature35.1 °F (1.7 °C)red thermometer
Wind Chill26.4 °F (-3.1 °C)
Reading TimeMinimum to Maximum Temperature
6-hr ending 12/12@22:5323 °F to 44.1 °F (-5 °C to 6.7 °C)
6-hr ending 12/12@16:5326.1 °F to 41 °F (-3.3 °C to 5 °C)
6-hr ending 12/12@10:5317.1 °F to 28.9 °F (-8.3 °C to -1.7 °C)
6-hr ending 12/12@04:5319 °F to 30 °F (-7.2 °C to -1.1 °C)
24-hr ending 12/12@23:5317.1 °F to 44.1 °F (-8.3 °C to 6.7 °C)
Wind12.7 MPH (11 KT) green arrow pointing 225 degrees
Wind FromSouthwest (230 Degrees)
Rolling 24-hr Peak Wind40.3 MPH (35 KT) on 12/12@18:00
Rolling 24-hr Peak Wind FromNorth/Northwest (340 Degrees)
Twilight Begins07:04Sunshine Yesterday
Sunrise07:36N/A
Sunset16:43
Twilight Ends17:15
METARKLND 130753Z AUTO 23011KT 10SM CLR 02/M07 A2985 RMK AO2 SLP115 T00171067
Tags: